sensor_id;sensor_type;location;lat;lon;timestamp;pressure;altitude;pressure_sealevel;temperature;humidity
56174;BME280;42058;52.308;20.924;2022-07-23T00:01:02;100587.47;;;23.14;87.69
56174;BME280;42058;52.308;20.924;2022-07-23T00:03:28;100582.36;;;23.11;87.67
56174;BME280;42058;52.308;20.924;2022-07-23T00:05:55;100590.14;;;23.09;87.84
56174;BME280;42058;52.308;20.924;2022-07-23T00:08:21;100584.15;;;23.05;88.33
56174;BME280;42058;52.308;20.924;2022-07-23T00:10:48;100585.33;;;23.01;88.62
56174;BME280;42058;52.308;20.924;2022-07-23T00:13:14;100589.12;;;22.98;88.52
56174;BME280;42058;52.308;20.924;2022-07-23T00:15:40;100586.66;;;22.95;88.56
56174;BME280;42058;52.308;20.924;2022-07-23T00:18:06;100585.08;;;22.93;88.58
56174;BME280;42058;52.308;20.924;2022-07-23T00:20:32;100585.65;;;22.91;88.91
56174;BME280;42058;52.308;20.924;2022-07-23T00:22:58;100585.91;;;22.88;89.16
56174;BME280;42058;52.308;20.924;2022-07-23T00:25:26;100583.45;;;22.84;88.96
56174;BME280;42058;52.308;20.924;2022-07-23T00:27:52;100589.03;;;22.81;89.02
56174;BME280;42058;52.308;20.924;2022-07-23T00:30:18;100585.27;;;22.78;89.25
56174;BME280;42058;52.308;20.924;2022-07-23T00:32:53;100586.83;;;22.75;89.30
56174;BME280;42058;52.308;20.924;2022-07-23T00:35:27;100591.80;;;22.74;89.35
56174;BME280;42058;52.308;20.924;2022-07-23T00:37:56;100583.02;;;22.72;89.71
56174;BME280;42058;52.308;20.924;2022-07-23T00:40:23;100592.05;;;22.71;89.52
56174;BME280;42058;52.308;20.924;2022-07-23T00:42:50;100589.10;;;22.69;89.91
56174;BME280;42058;52.308;20.924;2022-07-23T00:45:17;100591.05;;;22.67;90.21
56174;BME280;42058;52.308;20.924;2022-07-23T00:47:43;100594.09;;;22.62;90.47
56174;BME280;42058;52.308;20.924;2022-07-23T00:50:11;100595.16;;;22.59;90.23
56174;BME280;42058;52.308;20.924;2022-07-23T00:52:38;100586.86;;;22.57;90.82
56174;BME280;42058;52.308;20.924;2022-07-23T00:55:08;100590.75;;;22.53;90.37
56174;BME280;42058;52.308;20.924;2022-07-23T00:57:38;100598.52;;;22.50;90.34
56174;BME280;42058;52.308;20.924;2022-07-23T01:00:08;100594.47;;;22.44;91.13
56174;BME280;42058;52.308;20.924;2022-07-23T01:02:37;100596.41;;;22.42;91.00
56174;BME280;42058;52.308;20.924;2022-07-23T01:05:04;100597.97;;;22.39;90.81
56174;BME280;42058;52.308;20.924;2022-07-23T01:07:31;100591.97;;;22.36;90.42
56174;BME280;42058;52.308;20.924;2022-07-23T01:09:57;100592.68;;;22.32;90.50
56174;BME280;42058;52.308;20.924;2022-07-23T01:12:25;100591.59;;;22.29;90.76
56174;BME280;42058;52.308;20.924;2022-07-23T01:14:55;100586.02;;;22.25;91.63
56174;BME280;42058;52.308;20.924;2022-07-23T01:17:22;100596.60;;;22.21;91.37
56174;BME280;42058;52.308;20.924;2022-07-23T01:19:49;100596.36;;;22.18;91.29
56174;BME280;42058;52.308;20.924;2022-07-23T01:22:18;100593.89;;;22.15;91.31
56174;BME280;42058;52.308;20.924;2022-07-23T01:24:46;100594.59;;;22.12;92.19
56174;BME280;42058;52.308;20.924;2022-07-23T01:27:12;100593.61;;;22.07;92.34
56174;BME280;42058;52.308;20.924;2022-07-23T01:29:39;100591.88;;;22.06;92.22
56174;BME280;42058;52.308;20.924;2022-07-23T01:32:10;100598.33;;;22.03;92.11
56174;BME280;42058;52.308;20.924;2022-07-23T01:34:38;100603.69;;;22.03;92.48
56174;BME280;42058;52.308;20.924;2022-07-23T01:37:06;100602.95;;;22.01;93.34
56174;BME280;42058;52.308;20.924;2022-07-23T01:39:34;100608.87;;;21.99;93.57
56174;BME280;42058;52.308;20.924;2022-07-23T01:42:01;100607.77;;;21.96;93.27
56174;BME280;42058;52.308;20.924;2022-07-23T01:44:27;100611.40;;;21.95;93.22
56174;BME280;42058;52.308;20.924;2022-07-23T01:46:55;100605.30;;;21.93;93.33
56174;BME280;42058;52.308;20.924;2022-07-23T01:49:21;100604.91;;;21.92;93.27
56174;BME280;42058;52.308;20.924;2022-07-23T01:52:06;100607.45;;;21.88;93.59
56174;BME280;42058;52.308;20.924;2022-07-23T01:54:39;100602.33;;;21.85;93.87
56174;BME280;42058;52.308;20.924;2022-07-23T01:57:07;100608.38;;;21.81;93.83
56174;BME280;42058;52.308;20.924;2022-07-23T01:59:34;100600.55;;;21.78;93.86
56174;BME280;42058;52.308;20.924;2022-07-23T02:02:00;100604.78;;;21.75;94.60
56174;BME280;42058;52.308;20.924;2022-07-23T02:04:30;100596.10;;;21.72;94.83
56174;BME280;42058;52.308;20.924;2022-07-23T02:06:59;100593.17;;;21.69;94.49
56174;BME280;42058;52.308;20.924;2022-07-23T02:09:26;100596.70;;;21.69;95.26
56174;BME280;42058;52.308;20.924;2022-07-23T02:11:52;100594.13;;;21.68;95.26
56174;BME280;42058;52.308;20.924;2022-07-23T02:14:19;100595.56;;;21.66;95.45
56174;BME280;42058;52.308;20.924;2022-07-23T02:16:47;100590.70;;;21.66;95.16
56174;BME280;42058;52.308;20.924;2022-07-23T02:19:14;100586.78;;;21.64;95.07
56174;BME280;42058;52.308;20.924;2022-07-23T02:21:42;100591.78;;;21.63;95.40
56174;BME280;42058;52.308;20.924;2022-07-23T02:24:08;100591.99;;;21.60;95.92
56174;BME280;42058;52.308;20.924;2022-07-23T02:26:34;100594.88;;;21.57;96.38
56174;BME280;42058;52.308;20.924;2022-07-23T02:29:03;100592.05;;;21.53;96.30
56174;BME280;42058;52.308;20.924;2022-07-23T02:31:32;100587.03;;;21.48;96.63
56174;BME280;42058;52.308;20.924;2022-07-23T02:33:59;100591.31;;;21.44;96.65
56174;BME280;42058;52.308;20.924;2022-07-23T02:36:26;100586.66;;;21.40;97.16
56174;BME280;42058;52.308;20.924;2022-07-23T02:38:53;100581.64;;;21.36;97.04
56174;BME280;42058;52.308;20.924;2022-07-23T02:41:20;100580.56;;;21.38;97.20
56174;BME280;42058;52.308;20.924;2022-07-23T02:43:46;100583.23;;;21.38;97.49
56174;BME280;42058;52.308;20.924;2022-07-23T02:46:14;100583.72;;;21.38;97.76
56174;BME280;42058;52.308;20.924;2022-07-23T02:48:41;100577.62;;;21.36;97.56
56174;BME280;42058;52.308;20.924;2022-07-23T02:51:07;100569.20;;;21.35;97.07
56174;BME280;42058;52.308;20.924;2022-07-23T02:53:35;100569.80;;;21.33;97.56
56174;BME280;42058;52.308;20.924;2022-07-23T02:56:01;100570.75;;;21.31;97.49
56174;BME280;42058;52.308;20.924;2022-07-23T02:58:28;100574.11;;;21.28;98.09
56174;BME280;42058;52.308;20.924;2022-07-23T03:00:54;100566.32;;;21.25;98.30
56174;BME280;42058;52.308;20.924;2022-07-23T03:03:20;100571.03;;;21.21;98.08
56174;BME280;42058;52.308;20.924;2022-07-23T03:05:47;100569.30;;;21.20;98.04
56174;BME280;42058;52.308;20.924;2022-07-23T03:08:13;100570.15;;;21.21;98.59
56174;BME280;42058;52.308;20.924;2022-07-23T03:10:42;100569.30;;;21.20;98.68
56174;BME280;42058;52.308;20.924;2022-07-23T03:13:08;100569.79;;;21.20;98.86
56174;BME280;42058;52.308;20.924;2022-07-23T03:15:36;100576.97;;;21.19;99.47
56174;BME280;42058;52.308;20.924;2022-07-23T03:18:03;100578.41;;;21.18;99.25
56174;BME280;42058;52.308;20.924;2022-07-23T03:20:30;100576.19;;;21.17;99.55
56174;BME280;42058;52.308;20.924;2022-07-23T03:22:56;100574.10;;;21.15;99.94
56174;BME280;42058;52.308;20.924;2022-07-23T03:25:22;100570.09;;;21.15;100.00
56174;BME280;42058;52.308;20.924;2022-07-23T03:27:49;100581.38;;;21.13;100.00
56174;BME280;42058;52.308;20.924;2022-07-23T03:30:15;100585.04;;;21.12;100.00
56174;BME280;42058;52.308;20.924;2022-07-23T03:32:41;100586.94;;;21.10;100.00
56174;BME280;42058;52.308;20.924;2022-07-23T03:35:08;100584.39;;;21.08;100.00
56174;BME280;42058;52.308;20.924;2022-07-23T03:37:34;100582.56;;;21.09;100.00
56174;BME280;42058;52.308;20.924;2022-07-23T03:40:01;100583.31;;;21.11;100.00
56174;BME280;42058;52.308;20.924;2022-07-23T03:42:28;100584.55;;;21.12;100.00
56174;BME280;42058;52.308;20.924;2022-07-23T03:44:54;100591.14;;;21.14;100.00
56174;BME280;42058;52.308;20.924;2022-07-23T03:47:20;100590.75;;;21.13;100.00
56174;BME280;42058;52.308;20.924;2022-07-23T03:49:49;100606.11;;;21.17;100.00
56174;BME280;42058;52.308;20.924;2022-07-23T03:52:15;100601.61;;;21.17;100.00
56174;BME280;42058;52.308;20.924;2022-07-23T03:54:43;100597.59;;;21.17;100.00
56174;BME280;42058;52.308;20.924;2022-07-23T03:57:11;100595.31;;;21.18;100.00
56174;BME280;42058;52.308;20.924;2022-07-23T03:59:37;100599.42;;;21.17;100.00
56174;BME280;42058;52.308;20.924;2022-07-23T04:02:07;100596.27;;;21.17;100.00
56174;BME280;42058;52.308;20.924;2022-07-23T04:04:33;100598.84;;;21.19;100.00
56174;BME280;42058;52.308;20.924;2022-07-23T04:06:59;100594.13;;;21.22;100.00
56174;BME280;42058;52.308;20.924;2022-07-23T04:09:29;100598.80;;;21.26;100.00
56174;BME280;42058;52.308;20.924;2022-07-23T04:11:55;100590.66;;;21.27;100.00
56174;BME280;42058;52.308;20.924;2022-07-23T04:14:21;100585.11;;;21.30;100.00
56174;BME280;42058;52.308;20.924;2022-07-23T04:16:47;100590.72;;;21.33;100.00
56174;BME280;42058;52.308;20.924;2022-07-23T04:19:14;100597.20;;;21.36;100.00
56174;BME280;42058;52.308;20.924;2022-07-23T04:21:42;100591.75;;;21.38;100.00
56174;BME280;42058;52.308;20.924;2022-07-23T04:24:11;100586.76;;;21.39;100.00
56174;BME280;42058;52.308;20.924;2022-07-23T04:26:39;100589.23;;;21.42;100.00
56174;BME280;42058;52.308;20.924;2022-07-23T04:29:05;100586.38;;;21.45;100.00
56174;BME280;42058;52.308;20.924;2022-07-23T04:31:31;100586.64;;;21.47;100.00
56174;BME280;42058;52.308;20.924;2022-07-23T04:33:57;100584.99;;;21.52;100.00
56174;BME280;42058;52.308;20.924;2022-07-23T04:36:24;100582.83;;;21.57;100.00
56174;BME280;42058;52.308;20.924;2022-07-23T04:38:51;100592.25;;;21.63;100.00
56174;BME280;42058;52.308;20.924;2022-07-23T04:41:17;100592.78;;;21.68;100.00
56174;BME280;42058;52.308;20.924;2022-07-23T04:43:44;100581.76;;;21.73;100.00
56174;BME280;42058;52.308;20.924;2022-07-23T04:46:12;100579.62;;;21.78;100.00
56174;BME280;42058;52.308;20.924;2022-07-23T04:48:41;100582.80;;;21.83;100.00
56174;BME280;42058;52.308;20.924;2022-07-23T04:51:08;100579.31;;;21.88;100.00
56174;BME280;42058;52.308;20.924;2022-07-23T04:53:37;100578.50;;;21.93;100.00
56174;BME280;42058;52.308;20.924;2022-07-23T04:56:05;100576.36;;;21.98;100.00
56174;BME280;42058;52.308;20.924;2022-07-23T04:58:31;100582.25;;;22.03;100.00
56174;BME280;42058;52.308;20.924;2022-07-23T05:00:57;100582.50;;;22.06;100.00
56174;BME280;42058;52.308;20.924;2022-07-23T05:03:24;100582.32;;;22.15;100.00
56174;BME280;42058;52.308;20.924;2022-07-23T05:05:51;100586.27;;;22.22;100.00
56174;BME280;42058;52.308;20.924;2022-07-23T05:08:17;100588.66;;;22.32;100.00
56174;BME280;42058;52.308;20.924;2022-07-23T05:10:46;100594.69;;;22.41;100.00
56174;BME280;42058;52.308;20.924;2022-07-23T05:13:17;100587.44;;;22.49;100.00
56174;BME280;42058;52.308;20.924;2022-07-23T05:15:46;100595.65;;;22.59;100.00
56174;BME280;42058;52.308;20.924;2022-07-23T05:18:13;100592.77;;;22.68;100.00
56174;BME280;42058;52.308;20.924;2022-07-23T05:20:41;100583.75;;;22.74;100.00
56174;BME280;42058;52.308;20.924;2022-07-23T05:23:07;100591.49;;;22.84;100.00
56174;BME280;42058;52.308;20.924;2022-07-23T05:25:34;100578.37;;;22.93;100.00
56174;BME280;42058;52.308;20.924;2022-07-23T05:28:00;100579.47;;;23.01;100.00
56174;BME280;42058;52.308;20.924;2022-07-23T05:30:27;100582.97;;;23.09;100.00
56174;BME280;42058;52.308;20.924;2022-07-23T05:32:56;100588.97;;;23.18;100.00
56174;BME280;42058;52.308;20.924;2022-07-23T05:35:22;100579.20;;;23.29;100.00
56174;BME280;42058;52.308;20.924;2022-07-23T05:37:51;100574.73;;;23.40;99.75
56174;BME280;42058;52.308;20.924;2022-07-23T05:40:18;100579.98;;;23.53;99.83
56174;BME280;42058;52.308;20.924;2022-07-23T05:42:45;100567.91;;;23.65;99.19
56174;BME280;42058;52.308;20.924;2022-07-23T05:45:11;100570.23;;;23.75;98.72
56174;BME280;42058;52.308;20.924;2022-07-23T05:47:43;100566.95;;;23.88;98.01
56174;BME280;42058;52.308;20.924;2022-07-23T05:50:11;100566.94;;;23.99;98.17
56174;BME280;42058;52.308;20.924;2022-07-23T05:52:43;100563.27;;;24.12;97.52
56174;BME280;42058;52.308;20.924;2022-07-23T05:55:17;100569.95;;;24.23;97.20
56174;BME280;42058;52.308;20.924;2022-07-23T05:57:46;100566.27;;;24.35;96.03
56174;BME280;42058;52.308;20.924;2022-07-23T06:00:12;100574.17;;;24.48;95.90
56174;BME280;42058;52.308;20.924;2022-07-23T06:02:42;100564.75;;;24.60;96.01
56174;BME280;42058;52.308;20.924;2022-07-23T06:05:10;100564.58;;;24.72;95.98
56174;BME280;42058;52.308;20.924;2022-07-23T06:07:37;100571.96;;;24.86;95.26
56174;BME280;42058;52.308;20.924;2022-07-23T06:10:04;100561.88;;;24.99;95.28
56174;BME280;42058;52.308;20.924;2022-07-23T06:12:31;100563.50;;;25.11;94.57
56174;BME280;42058;52.308;20.924;2022-07-23T06:14:58;100565.05;;;25.25;94.20
56174;BME280;42058;52.308;20.924;2022-07-23T06:17:24;100560.17;;;25.40;94.33
56174;BME280;42058;52.308;20.924;2022-07-23T06:19:53;100565.92;;;25.57;93.67
56174;BME280;42058;52.308;20.924;2022-07-23T06:22:19;100561.73;;;25.74;92.53
56174;BME280;42058;52.308;20.924;2022-07-23T06:24:45;100561.11;;;25.91;92.03
56174;BME280;42058;52.308;20.924;2022-07-23T06:27:11;100558.91;;;26.06;91.03
56174;BME280;42058;52.308;20.924;2022-07-23T06:29:38;100560.08;;;26.23;90.84
56174;BME280;42058;52.308;20.924;2022-07-23T06:32:07;100555.16;;;26.38;89.72
56174;BME280;42058;52.308;20.924;2022-07-23T06:34:35;100553.36;;;26.52;89.17
56174;BME280;42058;52.308;20.924;2022-07-23T06:37:01;100562.29;;;26.68;87.73
56174;BME280;42058;52.308;20.924;2022-07-23T06:39:27;100560.52;;;26.82;87.46
56174;BME280;42058;52.308;20.924;2022-07-23T06:41:53;100555.52;;;26.97;86.12
56174;BME280;42058;52.308;20.924;2022-07-23T06:44:22;100559.50;;;27.13;85.46
56174;BME280;42058;52.308;20.924;2022-07-23T06:46:48;100560.42;;;27.27;84.83
56174;BME280;42058;52.308;20.924;2022-07-23T06:49:14;100556.24;;;27.42;83.49
56174;BME280;42058;52.308;20.924;2022-07-23T06:51:40;100554.93;;;27.56;82.78
56174;BME280;42058;52.308;20.924;2022-07-23T06:54:06;100555.30;;;27.71;82.14
56174;BME280;42058;52.308;20.924;2022-07-23T06:56:33;100548.19;;;27.84;81.36
56174;BME280;42058;52.308;20.924;2022-07-23T06:58:59;100545.49;;;27.98;79.57
56174;BME280;42058;52.308;20.924;2022-07-23T07:01:26;100549.37;;;28.09;78.29
56174;BME280;42058;52.308;20.924;2022-07-23T07:03:52;100548.49;;;28.23;77.96
56174;BME280;42058;52.308;20.924;2022-07-23T07:06:19;100546.95;;;28.38;78.10
56174;BME280;42058;52.308;20.924;2022-07-23T07:08:45;100543.23;;;28.53;76.79
56174;BME280;42058;52.308;20.924;2022-07-23T07:11:11;100538.14;;;28.68;75.67
56174;BME280;42058;52.308;20.924;2022-07-23T07:13:38;100540.98;;;28.84;75.39
56174;BME280;42058;52.308;20.924;2022-07-23T07:16:04;100541.27;;;28.99;75.23
56174;BME280;42058;52.308;20.924;2022-07-23T07:18:31;100540.91;;;29.16;72.54
56174;BME280;42058;52.308;20.924;2022-07-23T07:20:57;100539.96;;;29.29;70.37
56174;BME280;42058;52.308;20.924;2022-07-23T07:23:23;100541.57;;;29.44;69.64
56174;BME280;42058;52.308;20.924;2022-07-23T07:25:52;100531.99;;;29.58;67.86
56174;BME280;42058;52.308;20.924;2022-07-23T07:28:19;100539.88;;;29.74;67.86
56174;BME280;42058;52.308;20.924;2022-07-23T07:30:45;100527.05;;;29.88;67.22
56174;BME280;42058;52.308;20.924;2022-07-23T07:33:11;100524.07;;;30.03;66.13
56174;BME280;42058;52.308;20.924;2022-07-23T07:35:37;100519.20;;;30.19;65.16
56174;BME280;42058;52.308;20.924;2022-07-23T07:38:03;100523.43;;;30.30;63.13
56174;BME280;42058;52.308;20.924;2022-07-23T07:40:29;100528.23;;;30.44;63.03
56174;BME280;42058;52.308;20.924;2022-07-23T07:42:55;100526.22;;;30.59;62.80
56174;BME280;42058;52.308;20.924;2022-07-23T07:45:23;100525.90;;;30.74;61.08
56174;BME280;42058;52.308;20.924;2022-07-23T07:47:51;100525.02;;;30.90;61.29
56174;BME280;42058;52.308;20.924;2022-07-23T07:50:19;100528.44;;;31.04;59.33
56174;BME280;42058;52.308;20.924;2022-07-23T07:52:46;100526.38;;;31.19;59.63
56174;BME280;42058;52.308;20.924;2022-07-23T07:55:13;100523.12;;;31.32;57.83
56174;BME280;42058;52.308;20.924;2022-07-23T07:57:39;100524.97;;;31.43;57.54
56174;BME280;42058;52.308;20.924;2022-07-23T08:00:08;100530.55;;;31.58;56.27
56174;BME280;42058;52.308;20.924;2022-07-23T08:02:46;100535.95;;;31.71;56.15
56174;BME280;42058;52.308;20.924;2022-07-23T08:05:14;100535.87;;;31.83;55.50
56174;BME280;42058;52.308;20.924;2022-07-23T08:07:41;100526.66;;;31.96;54.39
56174;BME280;42058;52.308;20.924;2022-07-23T08:10:08;100534.06;;;32.11;53.85
56174;BME280;42058;52.308;20.924;2022-07-23T08:12:40;100534.34;;;32.24;53.55
56174;BME280;42058;52.308;20.924;2022-07-23T08:15:11;100533.26;;;32.33;53.06
56174;BME280;42058;52.308;20.924;2022-07-23T08:17:38;100532.84;;;32.45;53.18
56174;BME280;42058;52.308;20.924;2022-07-23T08:20:05;100538.89;;;32.59;52.52
56174;BME280;42058;52.308;20.924;2022-07-23T08:22:44;100537.44;;;32.71;52.13
56174;BME280;42058;52.308;20.924;2022-07-23T08:25:12;100535.45;;;32.84;52.09
56174;BME280;42058;52.308;20.924;2022-07-23T08:27:39;100538.57;;;32.96;51.01
56174;BME280;42058;52.308;20.924;2022-07-23T08:30:06;100536.05;;;33.09;50.70
56174;BME280;42058;52.308;20.924;2022-07-23T08:32:32;100542.13;;;33.20;50.13
56174;BME280;42058;52.308;20.924;2022-07-23T08:34:58;100533.87;;;33.28;48.97
56174;BME280;42058;52.308;20.924;2022-07-23T08:37:24;100524.87;;;33.38;48.94
56174;BME280;42058;52.308;20.924;2022-07-23T08:39:50;100519.81;;;33.50;48.53
56174;BME280;42058;52.308;20.924;2022-07-23T08:42:18;100535.35;;;33.60;48.03
56174;BME280;42058;52.308;20.924;2022-07-23T08:44:45;100539.92;;;33.68;47.28
56174;BME280;42058;52.308;20.924;2022-07-23T08:47:12;100536.08;;;33.73;46.21
56174;BME280;42058;52.308;20.924;2022-07-23T08:49:40;100538.91;;;33.80;45.42
56174;BME280;42058;52.308;20.924;2022-07-23T08:52:07;100531.52;;;33.84;45.28
56174;BME280;42058;52.308;20.924;2022-07-23T08:54:34;100538.59;;;33.89;45.07
56174;BME280;42058;52.308;20.924;2022-07-23T08:57:00;100529.97;;;33.97;45.46
56174;BME280;42058;52.308;20.924;2022-07-23T08:59:26;100535.98;;;34.07;45.64
56174;BME280;42058;52.308;20.924;2022-07-23T09:01:53;100535.20;;;34.17;45.14
56174;BME280;42058;52.308;20.924;2022-07-23T09:04:19;100524.20;;;34.21;44.70
56174;BME280;42058;52.308;20.924;2022-07-23T09:06:45;100522.70;;;34.30;44.46
56174;BME280;42058;52.308;20.924;2022-07-23T09:09:21;100527.86;;;34.39;43.67
56174;BME280;42058;52.308;20.924;2022-07-23T09:11:48;100525.33;;;34.49;43.53
56174;BME280;42058;52.308;20.924;2022-07-23T09:14:35;100517.17;;;34.55;42.46
56174;BME280;42058;52.308;20.924;2022-07-23T09:16:49;100515.98;;;34.64;42.59
56174;BME280;42058;52.308;20.924;2022-07-23T09:19:20;100512.88;;;34.68;42.77
56174;BME280;42058;52.308;20.924;2022-07-23T09:21:49;100511.08;;;34.75;42.01
56174;BME280;42058;52.308;20.924;2022-07-23T09:24:15;100498.25;;;34.75;42.63
56174;BME280;42058;52.308;20.924;2022-07-23T09:26:48;100506.88;;;34.90;42.81
56174;BME280;42058;52.308;20.924;2022-07-23T09:29:20;100501.55;;;34.92;42.21
56174;BME280;42058;52.308;20.924;2022-07-23T09:32:02;100507.92;;;34.99;42.54
56174;BME280;42058;52.308;20.924;2022-07-23T09:34:35;100511.30;;;35.01;41.72
56174;BME280;42058;52.308;20.924;2022-07-23T09:37:16;100512.02;;;34.99;42.14
56174;BME280;42058;52.308;20.924;2022-07-23T09:39:45;100507.11;;;35.06;42.24
56174;BME280;42058;52.308;20.924;2022-07-23T09:42:22;100502.92;;;35.10;41.62
56174;BME280;42058;52.308;20.924;2022-07-23T09:44:52;100501.27;;;35.15;41.39
56174;BME280;42058;52.308;20.924;2022-07-23T09:47:21;100491.98;;;35.20;40.82
56174;BME280;42058;52.308;20.924;2022-07-23T09:50:09;100490.52;;;35.25;40.65
56174;BME280;42058;52.308;20.924;2022-07-23T09:52:45;100488.56;;;35.29;40.80
56174;BME280;42058;52.308;20.924;2022-07-23T09:55:15;100479.96;;;35.32;40.21
56174;BME280;42058;52.308;20.924;2022-07-23T09:57:43;100477.00;;;35.34;40.08
56174;BME280;42058;52.308;20.924;2022-07-23T10:00:12;100485.84;;;35.36;40.19
56174;BME280;42058;52.308;20.924;2022-07-23T10:02:39;100480.52;;;35.38;40.09
56174;BME280;42058;52.308;20.924;2022-07-23T10:05:25;100482.85;;;35.41;39.66
56174;BME280;42058;52.308;20.924;2022-07-23T10:08:11;100477.28;;;35.46;39.91
56174;BME280;42058;52.308;20.924;2022-07-23T10:11:00;100479.83;;;35.47;39.11
56174;BME280;42058;52.308;20.924;2022-07-23T10:13:28;100484.77;;;35.48;39.23
56174;BME280;42058;52.308;20.924;2022-07-23T10:16:14;100478.26;;;35.49;38.69
56174;BME280;42058;52.308;20.924;2022-07-23T10:18:42;100472.25;;;35.49;38.27
56174;BME280;42058;52.308;20.924;2022-07-23T10:21:08;100472.36;;;35.52;38.56
56174;BME280;42058;52.308;20.924;2022-07-23T10:23:47;100473.63;;;35.56;38.16
56174;BME280;42058;52.308;20.924;2022-07-23T10:26:21;100474.80;;;35.57;37.98
56174;BME280;42058;52.308;20.924;2022-07-23T10:29:21;100469.77;;;35.61;38.42
56174;BME280;42058;52.308;20.924;2022-07-23T10:32:07;100476.10;;;35.61;38.40
56174;BME280;42058;52.308;20.924;2022-07-23T10:37:46;100469.77;;;35.61;38.91
56174;BME280;42058;52.308;20.924;2022-07-23T10:40:21;100472.20;;;35.60;38.70
56174;BME280;42058;52.308;20.924;2022-07-23T10:42:50;100472.92;;;35.58;39.19
56174;BME280;42058;52.308;20.924;2022-07-23T10:45:30;100467.13;;;35.57;39.17
56174;BME280;42058;52.308;20.924;2022-07-23T10:48:18;100471.23;;;35.57;39.19
56174;BME280;42058;52.308;20.924;2022-07-23T10:51:07;100469.22;;;35.55;39.18
56174;BME280;42058;52.308;20.924;2022-07-23T10:59:23;100465.66;;;35.54;38.43
56174;BME280;42058;52.308;20.924;2022-07-23T11:01:49;100466.05;;;35.51;38.66
56174;BME280;42058;52.308;20.924;2022-07-23T11:04:16;100462.14;;;35.50;38.17
56174;BME280;42058;52.308;20.924;2022-07-23T11:09:41;100459.41;;;35.50;39.15
56174;BME280;42058;52.308;20.924;2022-07-23T11:15:12;100455.00;;;35.49;38.87
56174;BME280;42058;52.308;20.924;2022-07-23T11:20:22;100453.30;;;35.48;39.34
56174;BME280;42058;52.308;20.924;2022-07-23T11:22:55;100460.47;;;35.49;39.41
56174;BME280;42058;52.308;20.924;2022-07-23T11:27:54;100464.05;;;35.49;38.44
56174;BME280;42058;52.308;20.924;2022-07-23T11:35:44;100450.02;;;35.48;39.33
56174;BME280;42058;52.308;20.924;2022-07-23T11:38:14;100452.27;;;35.49;38.54
56174;BME280;42058;52.308;20.924;2022-07-23T11:40:48;100451.39;;;35.48;38.49
56174;BME280;42058;52.308;20.924;2022-07-23T11:43:18;100450.02;;;35.48;38.96
56174;BME280;42058;52.308;20.924;2022-07-23T11:45:51;100451.59;;;35.47;38.42
56174;BME280;42058;52.308;20.924;2022-07-23T11:48:21;100452.56;;;35.50;38.49
56174;BME280;42058;52.308;20.924;2022-07-23T11:50:49;100447.09;;;35.50;38.27
56174;BME280;42058;52.308;20.924;2022-07-23T11:53:24;100444.69;;;35.51;38.01
56174;BME280;42058;52.308;20.924;2022-07-23T11:56:07;100454.56;;;35.52;38.42
56174;BME280;42058;52.308;20.924;2022-07-23T11:58:35;100442.48;;;35.57;38.45
56174;BME280;42058;52.308;20.924;2022-07-23T12:01:03;100439.98;;;35.62;38.40
56174;BME280;42058;52.308;20.924;2022-07-23T12:03:29;100429.41;;;35.70;38.27
56174;BME280;42058;52.308;20.924;2022-07-23T12:05:57;100431.11;;;35.77;38.25
56174;BME280;42058;52.308;20.924;2022-07-23T12:08:24;100423.75;;;35.85;38.25
56174;BME280;42058;52.308;20.924;2022-07-23T12:10:50;100423.58;;;35.93;38.49
56174;BME280;42058;52.308;20.924;2022-07-23T12:13:19;100425.27;;;36.01;38.29
56174;BME280;42058;52.308;20.924;2022-07-23T12:15:52;100411.59;;;36.07;38.10
56174;BME280;42058;52.308;20.924;2022-07-23T12:18:20;100410.01;;;36.15;37.97
56174;BME280;42058;52.308;20.924;2022-07-23T12:20:50;100412.59;;;36.24;38.06
56174;BME280;42058;52.308;20.924;2022-07-23T12:23:19;100404.14;;;36.32;38.03
56174;BME280;42058;52.308;20.924;2022-07-23T12:25:48;100403.28;;;36.38;37.83
56174;BME280;42058;52.308;20.924;2022-07-23T12:28:17;100397.28;;;36.45;37.44
56174;BME280;42058;52.308;20.924;2022-07-23T12:30:50;100394.75;;;36.50;37.13
56174;BME280;42058;52.308;20.924;2022-07-23T12:33:30;100393.59;;;36.55;36.74
56174;BME280;42058;52.308;20.924;2022-07-23T12:36:00;100399.28;;;36.61;36.63
56174;BME280;42058;52.308;20.924;2022-07-23T12:38:42;100395.80;;;36.63;36.69
56174;BME280;42058;52.308;20.924;2022-07-23T12:41:07;100395.80;;;36.63;36.00
56174;BME280;42058;52.308;20.924;2022-07-23T12:43:39;100386.95;;;36.61;35.83
56174;BME280;42058;52.308;20.924;2022-07-23T12:46:09;100387.16;;;36.59;36.28
56174;BME280;42058;52.308;20.924;2022-07-23T12:48:39;100379.02;;;36.62;36.22
56174;BME280;42058;52.308;20.924;2022-07-23T12:51:19;100378.52;;;36.62;35.62
56174;BME280;42058;52.308;20.924;2022-07-23T12:53:52;100380.19;;;36.63;35.49
56174;BME280;42058;52.308;20.924;2022-07-23T12:56:27;100372.17;;;36.62;35.54
56174;BME280;42058;52.308;20.924;2022-07-23T12:59:06;100365.98;;;36.64;35.06
56174;BME280;42058;52.308;20.924;2022-07-23T13:01:37;100350.23;;;36.62;35.25
56174;BME280;42058;52.308;20.924;2022-07-23T13:04:20;100356.59;;;36.69;35.65
56174;BME280;42058;52.308;20.924;2022-07-23T13:06:50;100354.05;;;36.74;35.58
56174;BME280;42058;52.308;20.924;2022-07-23T13:11:50;100346.02;;;36.86;34.88
56174;BME280;42058;52.308;20.924;2022-07-23T13:14:19;100340.29;;;36.87;34.95